Time;durP1;ratioP1;P1;durP2;ratioP2;P2;SDS_P1;SDS_P2;PMS_P1;PMS_P2;Temp;Humidity;BMP_temperature;BMP_pressure;BME280_temperature;BME280_humidity;BME280_pressure;Samples;Min_cycle;Max_cycle;Signal;HPM_P1;HPM_P2
2023/09/25 00:01:08;;;;;;;0.00;0.00;;;12.80;99.90;;;;;;4944096;29;20042;-79
2023/09/25 00:03:34;;;;;;;0.10;0.10;;;12.80;99.90;;;;;;4947647;29;20035;-80
2023/09/25 00:06:00;;;;;;;0.00;0.00;;;12.80;99.90;;;;;;4963216;28;20157;-81
2023/09/25 00:08:25;;;;;;;0.10;0.10;;;12.70;99.90;;;;;;4947814;29;20789;-81
2023/09/25 00:10:52;;;;;;;0.00;0.00;;;12.70;99.90;;;;;;4944255;29;20410;-82
2023/09/25 00:13:18;;;;;;;0.10;0.10;;;12.60;99.90;;;;;;4947310;29;20027;-83
2023/09/25 00:15:45;;;;;;;0.00;0.00;;;12.50;99.90;;;;;;4964032;28;20483;-82
2023/09/25 00:18:13;;;;;;;0.00;0.00;;;12.40;99.90;;;;;;4957064;28;20038;-80
2023/09/25 00:20:40;;;;;;;0.00;0.00;;;12.40;99.90;;;;;;4938268;29;20048;-80
2023/09/25 00:23:06;;;;;;;0.10;0.10;;;12.40;99.90;;;;;;4954507;28;20099;-78
2023/09/25 00:25:31;;;;;;;0.00;0.00;;;12.40;99.90;;;;;;4940936;28;20766;-78
2023/09/25 00:27:58;;;;;;;0.00;0.00;;;12.30;99.90;;;;;;4945674;28;20055;-79
2023/09/25 00:30:24;;;;;;;0.00;0.00;;;12.30;99.90;;;;;;4942608;28;20035;-79
2023/09/25 00:32:52;;;;;;;0.10;0.10;;;12.20;99.90;;;;;;4942186;29;20755;-80
2023/09/25 00:35:20;;;;;;;0.00;0.00;;;12.20;99.90;;;;;;4947779;29;20038;-79
2023/09/25 00:37:46;;;;;;;0.00;0.00;;;12.30;99.90;;;;;;4942690;28;20535;-79
2023/09/25 00:40:18;;;;;;;0.20;0.20;;;12.30;99.90;;;;;;4950363;28;20024;-80
2023/09/25 00:42:49;;;;;;;0.00;0.00;;;12.40;99.90;;;;;;4931644;28;20040;-80
2023/09/25 00:45:15;;;;;;;0.00;0.00;;;12.30;99.90;;;;;;4932799;29;20027;-80
2023/09/25 00:47:44;;;;;;;0.00;0.00;;;12.30;99.90;;;;;;4944994;28;20086;-80
2023/09/25 00:50:11;;;;;;;0.00;0.00;;;12.30;99.90;;;;;;4948160;28;20031;-80
2023/09/25 00:52:41;;;;;;;0.10;0.10;;;12.30;99.90;;;;;;4937464;29;20028;-83
2023/09/25 00:55:07;;;;;;;0.10;0.10;;;12.30;99.90;;;;;;4950099;28;20722;-82
2023/09/25 00:57:38;;;;;;;0.03;0.03;;;12.30;99.90;;;;;;4936310;29;20034;-82
2023/09/25 01:00:11;;;;;;;0.10;0.10;;;12.30;99.90;;;;;;4940058;29;20070;-82
2023/09/25 01:02:37;;;;;;;0.10;0.10;;;12.20;99.90;;;;;;4946941;29;20035;-81
2023/09/25 01:05:06;;;;;;;0.00;0.00;;;12.30;99.90;;;;;;4949131;29;20045;-80
2023/09/25 01:07:32;;;;;;;0.10;0.10;;;12.20;99.90;;;;;;4942454;28;20027;-81
2023/09/25 01:10:10;;;;;;;0.00;0.00;;;12.20;99.90;;;;;;4954688;28;20111;-82
2023/09/25 01:12:37;;;;;;;0.10;0.10;;;12.20;99.90;;;;;;4947014;29;20427;-81
2023/09/25 01:15:06;;;;;;;0.22;0.22;;;12.20;99.90;;;;;;4947698;28;20027;-81
2023/09/25 01:17:32;;;;;;;0.10;0.10;;;12.30;99.90;;;;;;4950227;28;20550;-81
2023/09/25 01:19:59;;;;;;;0.00;0.00;;;12.20;99.90;;;;;;4961164;28;20114;-82
2023/09/25 01:22:25;;;;;;;0.40;0.40;;;12.20;99.90;;;;;;4946404;28;20048;-81
2023/09/25 01:24:51;;;;;;;0.00;0.00;;;12.10;99.90;;;;;;4945699;28;20054;-81
2023/09/25 01:27:17;;;;;;;0.00;0.00;;;12.10;99.90;;;;;;4949151;29;20819;-82
2023/09/25 01:29:42;;;;;;;0.10;0.10;;;12.00;99.90;;;;;;4946882;28;20902;-81
2023/09/25 01:32:08;;;;;;;0.03;0.03;;;12.00;99.90;;;;;;4943627;28;20039;-81
2023/09/25 01:34:34;;;;;;;0.00;0.00;;;11.90;99.90;;;;;;4944698;29;20067;-81
2023/09/25 01:37:04;;;;;;;0.10;0.10;;;12.00;99.90;;;;;;4963202;28;20074;-81
2023/09/25 01:39:31;;;;;;;0.15;0.15;;;11.90;99.90;;;;;;4947538;29;20035;-80
2023/09/25 01:41:56;;;;;;;;;;;11.80;99.90;;;;;;4948250;29;20041;-80
2023/09/25 01:44:24;;;;;;;0.00;0.00;;;11.80;99.90;;;;;;4949248;28;19914;-80
2023/09/25 01:46:49;;;;;;;0.00;0.00;;;11.70;99.90;;;;;;4948744;29;20034;-80
2023/09/25 01:49:15;;;;;;;0.00;0.00;;;11.60;99.90;;;;;;4945696;29;20028;-79
2023/09/25 01:51:43;;;;;;;0.00;0.00;;;11.70;99.90;;;;;;4945658;29;20479;-79
2023/09/25 01:54:09;;;;;;;0.10;0.10;;;11.70;99.90;;;;;;4939095;28;20031;-79
2023/09/25 01:56:35;;;;;;;0.00;0.00;;;11.70;99.90;;;;;;4953895;28;20217;-79
2023/09/25 01:59:00;;;;;;;0.00;0.00;;;11.60;99.90;;;;;;4943985;28;20047;-78
2023/09/25 02:01:26;;;;;;;0.05;0.05;;;11.60;99.90;;;;;;4945431;29;20746;-79
2023/09/25 02:03:52;;;;;;;0.00;0.00;;;11.60;99.90;;;;;;4954444;28;20031;-83
2023/09/25 02:06:17;;;;;;;0.10;0.10;;;11.70;99.90;;;;;;4945171;29;20027;-81
2023/09/25 02:08:43;;;;;;;0.10;0.10;;;11.60;99.90;;;;;;4964246;28;20765;-81
2023/09/25 02:11:09;;;;;;;0.10;0.10;;;11.60;99.90;;;;;;4944641;28;20562;-81
2023/09/25 02:13:34;;;;;;;0.80;0.80;;;11.60;99.90;;;;;;4945345;28;20038;-81
2023/09/25 02:16:00;;;;;;;0.10;0.10;;;11.60;99.90;;;;;;4948376;28;20039;-80
2023/09/25 02:18:25;;;;;;;0.10;0.10;;;11.60;99.90;;;;;;4946330;28;20127;-79
2023/09/25 02:20:51;;;;;;;0.10;0.10;;;11.60;99.90;;;;;;4948684;29;20058;-80
2023/09/25 02:23:18;;;;;;;0.10;0.10;;;11.50;99.90;;;;;;4941450;29;20155;-81
2023/09/25 02:25:44;;;;;;;0.10;0.10;;;11.50;99.90;;;;;;4962887;28;20042;-80
2023/09/25 02:28:10;;;;;;;0.00;0.00;;;11.50;99.90;;;;;;4950171;28;20027;-82
2023/09/25 02:30:36;;;;;;;0.10;0.10;;;11.40;99.90;;;;;;4960074;28;20027;-81
2023/09/25 02:33:02;;;;;;;0.40;0.40;;;11.50;99.90;;;;;;4940291;28;20115;-82
2023/09/25 02:35:28;;;;;;;0.10;0.10;;;11.40;99.90;;;;;;4948907;28;20066;-81
2023/09/25 02:37:54;;;;;;;0.45;0.45;;;11.50;99.90;;;;;;4943045;29;20031;-83
2023/09/25 02:40:20;;;;;;;0.10;0.10;;;11.50;99.90;;;;;;4939579;29;20039;-81
2023/09/25 02:42:46;;;;;;;0.10;0.10;;;11.50;99.90;;;;;;4960700;28;20024;-80
2023/09/25 02:45:11;;;;;;;0.10;0.10;;;11.50;99.90;;;;;;4937069;28;20059;-81
2023/09/25 02:47:37;;;;;;;0.10;0.10;;;11.40;99.90;;;;;;4941239;29;20055;-81
2023/09/25 02:50:03;;;;;;;3.97;1.45;;;11.40;99.90;;;;;;4935297;29;20035;-81
2023/09/25 02:52:29;;;;;;;1.40;1.30;;;11.40;99.90;;;;;;4945410;28;20036;-80
2023/09/25 02:54:54;;;;;;;0.10;0.10;;;11.30;99.90;;;;;;4942954;29;20675;-80
2023/09/25 02:57:20;;;;;;;0.10;0.10;;;11.30;99.90;;;;;;4940301;29;20043;-80
2023/09/25 02:59:46;;;;;;;1.08;0.82;;;11.30;99.90;;;;;;4940036;29;20024;-80
2023/09/25 03:02:12;;;;;;;0.10;0.10;;;11.30;99.90;;;;;;4955212;28;20603;-81
2023/09/25 03:04:37;;;;;;;0.00;0.00;;;11.30;99.90;;;;;;4948228;29;20119;-81
2023/09/25 03:07:03;;;;;;;0.00;0.00;;;11.20;99.90;;;;;;4940689;29;20031;-81
2023/09/25 03:09:29;;;;;;;0.10;0.10;;;11.20;99.90;;;;;;4959754;28;20035;-81
2023/09/25 03:11:55;;;;;;;0.10;0.10;;;11.20;99.90;;;;;;4945077;28;20068;-79
2023/09/25 03:14:20;;;;;;;0.00;0.00;;;11.20;99.90;;;;;;4941232;28;20107;-80
2023/09/25 03:16:47;;;;;;;0.10;0.10;;;11.10;99.90;;;;;;4944644;28;20131;-81
2023/09/25 03:19:13;;;;;;;0.10;0.10;;;11.20;99.90;;;;;;4946321;29;20035;-81
2023/09/25 03:21:41;;;;;;;0.10;0.10;;;11.20;99.90;;;;;;4939817;28;20063;-80
2023/09/25 03:24:07;;;;;;;0.13;0.13;;;11.20;99.90;;;;;;4945318;28;20068;-80
2023/09/25 03:26:33;;;;;;;0.10;0.10;;;11.20;99.90;;;;;;4958449;28;20269;-80
2023/09/25 03:28:59;;;;;;;0.00;0.00;;;11.10;99.90;;;;;;4943082;28;20038;-79
2023/09/25 03:31:24;;;;;;;0.00;0.00;;;11.20;99.90;;;;;;4960242;28;20023;-79
2023/09/25 03:33:50;;;;;;;0.00;0.00;;;11.10;99.90;;;;;;4943189;29;20103;-80
2023/09/25 03:36:16;;;;;;;0.13;0.13;;;11.10;99.90;;;;;;4941618;29;20037;-79
2023/09/25 03:38:42;;;;;;;0.30;0.30;;;11.10;99.90;;;;;;4947457;29;20110;-79
2023/09/25 03:41:07;;;;;;;0.10;0.10;;;11.10;99.90;;;;;;4943472;29;20039;-78
2023/09/25 03:43:33;;;;;;;0.20;0.20;;;11.00;99.90;;;;;;4934250;29;20039;-79
2023/09/25 03:45:59;;;;;;;0.10;0.10;;;11.00;99.90;;;;;;4936703;29;20095;-79
2023/09/25 03:48:25;;;;;;;0.00;0.00;;;10.90;99.90;;;;;;4939459;29;20028;-79
2023/09/25 03:50:50;;;;;;;0.00;0.00;;;11.00;99.90;;;;;;4939872;28;20031;-82
2023/09/25 03:53:16;;;;;;;0.10;0.10;;;11.00;99.90;;;;;;4948818;29;20833;-81
2023/09/25 03:55:42;;;;;;;1.13;1.02;;;10.90;99.90;;;;;;4937765;29;20054;-81
2023/09/25 03:58:07;;;;;;;0.00;0.00;;;10.90;99.90;;;;;;4942014;29;20543;-79
2023/09/25 04:00:33;;;;;;;0.10;0.10;;;10.90;99.90;;;;;;4948041;29;20109;-82
2023/09/25 04:02:59;;;;;;;0.00;0.00;;;10.80;99.90;;;;;;4947169;28;20031;-82
2023/09/25 04:05:25;;;;;;;0.10;0.10;;;10.70;99.90;;;;;;4960909;28;20562;-81
2023/09/25 04:07:50;;;;;;;0.47;0.47;;;10.70;99.90;;;;;;4945559;28;20708;-81
2023/09/25 04:10:17;;;;;;;0.10;0.10;;;10.70;99.90;;;;;;4936921;29;20028;-83
2023/09/25 04:12:42;;;;;;;0.30;0.30;;;10.70;99.90;;;;;;4947796;29;20027;-80
2023/09/25 04:15:12;;;;;;;0.10;0.10;;;10.70;99.90;;;;;;4942647;28;20051;-81
2023/09/25 04:17:39;;;;;;;0.10;0.10;;;10.70;99.90;;;;;;4958012;28;20037;-81
2023/09/25 04:20:08;;;;;;;0.20;0.20;;;10.70;99.90;;;;;;4947365;29;20938;-82
2023/09/25 04:22:37;;;;;;;0.10;0.10;;;10.70;99.90;;;;;;4963745;28;20059;-82
2023/09/25 04:25:08;;;;;;;0.05;0.05;;;10.70;99.90;;;;;;4950458;29;20483;-82
2023/09/25 04:27:35;;;;;;;0.10;0.10;;;10.60;99.90;;;;;;4947542;28;20059;-83
2023/09/25 04:30:02;;;;;;;0.10;0.10;;;10.60;99.90;;;;;;4953629;28;20030;-82
2023/09/25 04:32:28;;;;;;;0.10;0.10;;;10.50;99.90;;;;;;4948898;29;20028;-83
2023/09/25 04:34:54;;;;;;;0.10;0.10;;;10.50;99.90;;;;;;4949365;28;20051;-81
2023/09/25 04:37:20;;;;;;;0.10;0.10;;;10.60;99.90;;;;;;4945087;28;20043;-83
2023/09/25 04:39:46;;;;;;;0.45;0.45;;;10.50;99.90;;;;;;4948493;29;20049;-82
2023/09/25 04:42:12;;;;;;;0.20;0.20;;;10.60;99.90;;;;;;4947418;28;20043;-81
2023/09/25 04:44:38;;;;;;;0.10;0.10;;;10.50;99.90;;;;;;4950798;29;20029;-81
2023/09/25 04:47:04;;;;;;;0.10;0.10;;;10.50;99.90;;;;;;4942970;29;20538;-83
2023/09/25 04:49:30;;;;;;;0.20;0.20;;;10.50;99.90;;;;;;4950855;29;20050;-84
2023/09/25 04:51:56;;;;;;;0.30;0.30;;;10.40;99.90;;;;;;4963812;28;20051;-84
2023/09/25 04:54:22;;;;;;;0.00;0.00;;;10.40;99.90;;;;;;4964380;28;20685;-82
2023/09/25 04:56:48;;;;;;;0.10;0.10;;;10.40;99.90;;;;;;4957774;28;20035;-85
2023/09/25 04:59:14;;;;;;;0.10;0.10;;;10.40;99.90;;;;;;4946119;29;20079;-86
2023/09/25 05:01:39;;;;;;;0.08;0.08;;;10.20;99.90;;;;;;4948946;29;20118;-83
2023/09/25 05:04:05;;;;;;;0.10;0.10;;;10.40;99.90;;;;;;4946396;28;20023;-81
2023/09/25 05:06:31;;;;;;;0.10;0.10;;;10.40;99.90;;;;;;4949259;29;20118;-82
2023/09/25 05:08:57;;;;;;;0.10;0.10;;;10.40;99.90;;;;;;4943512;29;20170;-81
2023/09/25 05:11:23;;;;;;;0.35;0.22;;;10.40;99.90;;;;;;4961387;28;20042;-80
2023/09/25 05:13:49;;;;;;;0.22;0.22;;;10.30;99.90;;;;;;4951190;28;20048;-80
2023/09/25 05:16:15;;;;;;;0.28;0.28;;;10.20;99.90;;;;;;4962675;28;20769;-76
2023/09/25 05:18:42;;;;;;;0.13;0.13;;;10.10;99.90;;;;;;4950762;29;20153;-81
2023/09/25 05:21:08;;;;;;;0.10;0.10;;;10.10;99.90;;;;;;4963202;28;20058;-82
2023/09/25 05:23:33;;;;;;;0.32;0.32;;;10.10;99.90;;;;;;4951484;29;20114;-83
2023/09/25 05:25:59;;;;;;;0.10;0.10;;;10.10;99.90;;;;;;4949890;29;20033;-82
2023/09/25 05:28:25;;;;;;;0.10;0.10;;;10.10;99.90;;;;;;4957760;28;20628;-81
2023/09/25 05:30:54;;;;;;;0.10;0.10;;;10.10;99.90;;;;;;4951924;28;20046;-81
2023/09/25 05:33:20;;;;;;;0.10;0.10;;;10.10;99.90;;;;;;4950501;29;20122;-82
2023/09/25 05:35:47;;;;;;;0.10;0.10;;;10.10;99.90;;;;;;4948012;28;20623;-82
2023/09/25 05:38:13;;;;;;;0.10;0.10;;;9.90;99.90;;;;;;4949180;28;20035;-82
2023/09/25 05:40:38;;;;;;;0.10;0.10;;;10.00;99.90;;;;;;4949413;29;20666;-82
2023/09/25 05:43:04;;;;;;;0.10;0.10;;;10.00;99.90;;;;;;4951134;29;20046;-81
2023/09/25 05:45:31;;;;;;;0.10;0.10;;;10.00;99.90;;;;;;4957644;28;20091;-75
2023/09/25 05:47:57;;;;;;;0.00;0.00;;;10.00;99.90;;;;;;4950490;29;20027;-76
2023/09/25 05:50:25;;;;;;;0.20;0.20;;;10.10;99.90;;;;;;4949687;29;20493;-75
2023/09/25 05:52:51;;;;;;;0.10;0.10;;;10.00;99.90;;;;;;4950148;29;20042;-75
2023/09/25 05:55:17;;;;;;;0.10;0.10;;;10.00;99.90;;;;;;4949243;29;20923;-75
2023/09/25 05:57:42;;;;;;;0.10;0.10;;;10.20;99.90;;;;;;4950119;29;20034;-81
2023/09/25 06:00:11;;;;;;;0.52;0.52;;;10.50;99.90;;;;;;4964897;28;20031;-81
2023/09/25 06:02:38;;;;;;;0.10;0.10;;;11.00;99.90;;;;;;4949617;28;20543;-81
2023/09/25 06:05:04;;;;;;;0.03;0.03;;;11.30;99.90;;;;;;4946193;29;20027;-83
2023/09/25 06:07:30;;;;;;;0.10;0.10;;;11.50;99.90;;;;;;4948080;28;20031;-82
2023/09/25 06:09:55;;;;;;;0.10;0.10;;;11.80;99.90;;;;;;4950266;29;20036;-87
2023/09/25 06:12:21;;;;;;;0.10;0.10;;;12.10;99.90;;;;;;4965144;28;20170;-83
2023/09/25 06:14:47;;;;;;;0.00;0.00;;;12.40;99.90;;;;;;4944353;28;20070;-83
2023/09/25 06:17:15;;;;;;;0.00;0.00;;;12.60;99.90;;;;;;4947716;28;20038;-83
2023/09/25 06:19:41;;;;;;;0.08;0.08;;;12.90;99.90;;;;;;4949399;28;20077;-83
2023/09/25 06:22:07;;;;;;;0.00;0.00;;;13.40;99.90;;;;;;4950245;29;20109;-82
2023/09/25 06:24:33;;;;;;;0.00;0.00;;;13.60;99.90;;;;;;4950371;29;20032;-82
2023/09/25 06:26:59;;;;;;;0.00;0.00;;;13.80;99.90;;;;;;4950058;29;20310;-83
2023/09/25 06:29:25;;;;;;;0.00;0.00;;;13.90;99.80;;;;;;4956900;28;20027;-83
2023/09/25 06:31:51;;;;;;;0.00;0.00;;;14.20;99.40;;;;;;4964907;28;20491;-84
2023/09/25 06:34:17;;;;;;;0.00;0.00;;;14.30;98.70;;;;;;4965310;28;20075;-84
2023/09/25 06:36:42;;;;;;;0.00;0.00;;;14.60;97.90;;;;;;4949877;29;20119;-84
2023/09/25 06:39:11;;;;;;;0.30;0.30;;;14.70;97.30;;;;;;4949161;29;20035;-83
2023/09/25 06:41:37;;;;;;;0.10;0.10;;;14.90;96.80;;;;;;4949739;29;20035;-84
2023/09/25 06:44:07;;;;;;;0.47;0.47;;;15.10;96.50;;;;;;4948733;28;20059;-83
2023/09/25 06:46:33;;;;;;;0.00;0.00;;;15.40;95.10;;;;;;4949796;28;20047;-83
2023/09/25 06:49:02;;;;;;;0.00;0.00;;;15.60;94.90;;;;;;4949628;29;20089;-83
2023/09/25 06:51:28;;;;;;;0.00;0.00;;;15.80;94.30;;;;;;4949130;28;20027;-83
2023/09/25 06:53:54;;;;;;;0.00;0.00;;;15.60;94.30;;;;;;4949965;29;20059;-83
2023/09/25 06:56:20;;;;;;;0.00;0.00;;;15.90;94.20;;;;;;4964649;28;20055;-83
2023/09/25 06:58:46;;;;;;;0.00;0.00;;;16.10;93.10;;;;;;4949916;29;20035;-83
2023/09/25 07:01:12;;;;;;;0.00;0.00;;;16.30;92.90;;;;;;4949542;29;20042;-84
2023/09/25 07:03:37;;;;;;;0.00;0.00;;;16.60;92.40;;;;;;4946340;28;20031;-83
2023/09/25 07:06:03;;;;;;;0.10;0.10;;;16.80;91.90;;;;;;4949605;29;20027;-83
2023/09/25 07:08:30;;;;;;;0.00;0.00;;;17.10;91.40;;;;;;4949463;28;20431;-83
2023/09/25 07:10:58;;;;;;;0.00;0.00;;;17.30;90.80;;;;;;4949075;29;20027;-84
2023/09/25 07:13:24;;;;;;;0.00;0.00;;;17.60;90.00;;;;;;4948896;29;20517;-83
2023/09/25 07:15:50;;;;;;;0.00;0.00;;;17.90;88.20;;;;;;4950664;28;20038;-83
2023/09/25 07:18:17;;;;;;;0.00;0.00;;;18.20;87.50;;;;;;4948558;29;20035;-83
2023/09/25 07:20:45;;;;;;;0.00;0.00;;;18.20;86.40;;;;;;4949081;28;20063;-83
2023/09/25 07:23:11;;;;;;;0.00;0.00;;;18.20;85.10;;;;;;4937905;29;20059;-84
2023/09/25 07:25:37;;;;;;;0.00;0.00;;;18.20;86.60;;;;;;4963509;28;20067;-84
2023/09/25 07:28:03;;;;;;;0.00;0.00;;;18.50;85.30;;;;;;4948384;28;20077;-83
2023/09/25 07:30:29;;;;;;;0.00;0.00;;;18.10;83.30;;;;;;4951848;28;20035;-83
2023/09/25 07:32:55;;;;;;;0.00;0.00;;;18.80;83.90;;;;;;4962358;28;20037;-84
2023/09/25 07:35:21;;;;;;;0.00;0.00;;;19.30;81.80;;;;;;4946570;29;20630;-84
2023/09/25 07:37:47;;;;;;;0.00;0.00;;;19.20;81.70;;;;;;4946379;28;20585;-83
2023/09/25 07:40:14;;;;;;;0.00;0.00;;;19.50;80.10;;;;;;4945715;28;20031;-84
2023/09/25 07:42:41;;;;;;;0.00;0.00;;;19.60;79.00;;;;;;4946117;29;20041;-84
2023/09/25 07:45:11;;;;;;;0.00;0.00;;;19.70;80.60;;;;;;4945686;28;20662;-84
2023/09/25 07:47:38;;;;;;;0.00;0.00;;;20.00;77.80;;;;;;4961861;28;20030;-83
2023/09/25 07:50:11;;;;;;;0.00;0.00;;;20.40;76.70;;;;;;4963018;28;20039;-84
2023/09/25 07:52:40;;;;;;;0.00;0.00;;;20.30;75.90;;;;;;4962331;28;20031;-85
2023/09/25 07:55:08;;;;;;;0.00;0.00;;;20.70;75.80;;;;;;4946663;29;20039;-83
2023/09/25 07:57:39;;;;;;;0.00;0.00;;;20.70;74.20;;;;;;4947982;28;20050;-84
2023/09/25 08:00:15;;;;;;;0.00;0.00;;;20.90;73.40;;;;;;4951838;29;20035;-84
2023/09/25 08:02:47;;;;;;;0.00;0.00;;;20.90;73.20;;;;;;4944958;28;20038;-84
2023/09/25 08:05:18;;;;;;;0.00;0.00;;;21.30;73.20;;;;;;4950691;29;20031;-85
2023/09/25 08:07:46;;;;;;;0.00;0.00;;;21.50;71.50;;;;;;4951923;29;20019;-84
2023/09/25 08:10:12;;;;;;;0.00;0.00;;;21.90;71.00;;;;;;4950186;29;20102;-84
2023/09/25 08:12:38;;;;;;;0.00;0.00;;;21.60;69.50;;;;;;4951174;28;20033;-84
2023/09/25 08:15:05;;;;;;;0.00;0.00;;;21.80;70.90;;;;;;4964276;28;20102;-85
2023/09/25 08:17:31;;;;;;;0.00;0.00;;;22.10;71.50;;;;;;4950783;28;20034;-85
2023/09/25 08:19:56;;;;;;;0.00;0.00;;;22.20;69.60;;;;;;4947758;29;20051;-85
2023/09/25 08:22:22;;;;;;;0.00;0.00;;;22.40;68.30;;;;;;4944007;29;21017;-84
2023/09/25 08:24:48;;;;;;;0.00;0.00;;;22.80;68.50;;;;;;4947510;29;20042;-84
2023/09/25 08:27:14;;;;;;;0.00;0.00;;;22.60;67.30;;;;;;4948409;29;20024;-84
2023/09/25 08:29:40;;;;;;;0.00;0.00;;;22.30;67.00;;;;;;4958292;28;20050;-83
2023/09/25 08:32:07;;;;;;;0.00;0.00;;;22.70;67.50;;;;;;4949011;29;20611;-84
2023/09/25 08:34:34;;;;;;;0.00;0.00;;;22.70;65.20;;;;;;4950296;28;20041;-84
2023/09/25 08:36:59;;;;;;;0.00;0.00;;;22.50;65.60;;;;;;4949148;28;20039;-84
2023/09/25 08:39:25;;;;;;;0.00;0.00;;;22.80;67.40;;;;;;4963266;28;20034;-84
2023/09/25 08:41:51;;;;;;;0.00;0.00;;;23.30;65.80;;;;;;4950141;28;20032;-85
2023/09/25 08:44:18;;;;;;;0.00;0.00;;;24.00;65.00;;;;;;4952014;29;20041;-85
2023/09/25 08:46:44;;;;;;;0.00;0.00;;;24.00;62.10;;;;;;4947420;29;20034;-84
2023/09/25 08:49:10;;;;;;;;;;;24.30;63.00;;;;;;4947577;29;20067;-84
2023/09/25 08:51:37;;;;;;;;;;;25.20;61.90;;;;;;4951808;28;20401;-84
2023/09/25 08:54:03;;;;;;;0.00;0.00;;;25.10;59.70;;;;;;4959727;28;20827;-83
2023/09/25 08:56:31;;;;;;;0.00;0.00;;;24.80;60.40;;;;;;4941538;29;20574;-84
2023/09/25 08:59:00;;;;;;;0.00;0.00;;;25.50;56.80;;;;;;4949099;29;20696;-83
2023/09/25 09:01:28;;;;;;;0.00;0.00;;;26.30;57.40;;;;;;4947917;29;20031;-84
2023/09/25 09:03:53;;;;;;;0.00;0.00;;;26.30;55.80;;;;;;4947007;28;20036;-84
2023/09/25 09:06:19;;;;;;;0.00;0.00;;;26.40;56.00;;;;;;4951813;29;20087;-84
2023/09/25 09:08:46;;;;;;;0.00;0.00;;;26.20;56.20;;;;;;4943002;29;20553;-84
2023/09/25 09:11:12;;;;;;;;;;;25.90;55.80;;;;;;4949962;28;20035;-85
2023/09/25 09:13:44;;;;;;;0.00;0.00;;;27.10;58.30;;;;;;4945400;28;19990;-83
2023/09/25 09:16:15;;;;;;;0.00;0.00;;;26.90;56.10;;;;;;4952279;28;20048;-85
2023/09/25 09:18:41;;;;;;;0.00;0.00;;;26.70;56.30;;;;;;4948206;28;20035;-84
2023/09/25 09:21:24;;;;;;;0.00;0.00;;;26.80;57.50;;;;;;4947144;28;20118;-85
2023/09/25 09:23:50;;;;;;;0.00;0.00;;;27.10;54.80;;;;;;4947210;28;20499;-84
2023/09/25 09:26:16;;;;;;;0.00;0.00;;;27.10;53.50;;;;;;4948809;29;20031;-85
2023/09/25 09:28:43;;;;;;;0.00;0.00;;;27.20;56.10;;;;;;4958151;28;20023;-85
2023/09/25 09:31:10;;;;;;;0.00;0.00;;;26.50;52.80;;;;;;4947946;28;20027;-85
2023/09/25 09:33:42;;;;;;;0.00;0.00;;;26.90;55.40;;;;;;4948305;29;20051;-86
2023/09/25 09:36:14;;;;;;;0.00;0.00;;;26.70;53.10;;;;;;4948039;28;20027;-85
2023/09/25 09:38:42;;;;;;;0.28;0.28;;;26.80;53.30;;;;;;4949306;28;20032;-84
2023/09/25 09:41:08;;;;;;;0.00;0.00;;;26.70;52.80;;;;;;4950201;29;20153;-84
2023/09/25 09:43:34;;;;;;;;;;;27.30;54.00;;;;;;4949656;28;20608;-84
2023/09/25 09:46:00;;;;;;;0.00;0.00;;;27.70;53.20;;;;;;4945102;28;19910;-84
2023/09/25 09:48:29;;;;;;;0.00;0.00;;;26.10;52.50;;;;;;4949719;29;20023;-84
2023/09/25 09:51:02;;;;;;;0.00;0.00;;;25.10;54.00;;;;;;4950310;28;20027;-84
2023/09/25 09:53:28;;;;;;;0.00;0.00;;;24.70;55.90;;;;;;4950191;29;20086;-84
2023/09/25 09:55:58;;;;;;;0.00;0.00;;;24.60;59.40;;;;;;4945768;29;20035;-84
2023/09/25 09:58:27;;;;;;;0.00;0.00;;;24.10;58.70;;;;;;4942303;28;20023;-84
2023/09/25 10:00:57;;;;;;;0.00;0.00;;;24.00;60.30;;;;;;4947941;28;20039;-83
2023/09/25 10:03:24;;;;;;;0.00;0.00;;;24.40;61.00;;;;;;4946008;28;20102;-83
2023/09/25 10:05:53;;;;;;;0.00;0.00;;;24.00;58.30;;;;;;4945375;28;20038;-84
2023/09/25 10:08:18;;;;;;;0.00;0.00;;;24.20;58.10;;;;;;4945457;29;20138;-85
2023/09/25 10:10:48;;;;;;;0.00;0.00;;;24.40;60.40;;;;;;4946537;29;20122;-84
2023/09/25 10:13:25;;;;;;;3.03;2.83;;;23.00;58.40;;;;;;4942575;29;20043;-83
2023/09/25 10:15:59;;;;;;;0.20;0.20;;;23.40;59.70;;;;;;4956339;28;20035;-84
2023/09/25 10:18:29;;;;;;;0.00;0.00;;;22.90;59.90;;;;;;4946585;28;20479;-83
2023/09/25 10:21:10;;;;;;;0.00;0.00;;;22.90;58.60;;;;;;4948652;28;20054;-84
2023/09/25 10:23:39;;;;;;;0.00;0.00;;;23.00;60.10;;;;;;4951438;28;20066;-84
2023/09/25 10:26:19;;;;;;;0.00;0.00;;;23.40;59.50;;;;;;4947468;28;20038;-85
2023/09/25 10:28:54;;;;;;;0.00;0.00;;;23.40;59.20;;;;;;4956001;28;20038;-85
2023/09/25 10:31:22;;;;;;;0.00;0.00;;;23.10;59.80;;;;;;4944075;29;20031;-85
2023/09/25 10:34:00;;;;;;;0.00;0.00;;;22.80;59.20;;;;;;4947945;29;20034;-85
2023/09/25 10:36:36;;;;;;;0.00;0.00;;;23.00;62.90;;;;;;4941407;29;20039;-85
2023/09/25 10:39:06;;;;;;;0.00;0.00;;;22.70;62.40;;;;;;4947279;28;20093;-85
2023/09/25 10:41:32;;;;;;;0.00;0.00;;;23.20;62.20;;;;;;4950013;29;20434;-85
2023/09/25 10:43:58;;;;;;;0.00;0.00;;;23.50;59.60;;;;;;4948065;28;20027;-84
2023/09/25 10:46:24;;;;;;;;;;;23.40;61.10;;;;;;4945918;29;20098;-85
2023/09/25 10:48:50;;;;;;;0.00;0.00;;;23.40;62.20;;;;;;4955833;28;20001;-84
2023/09/25 10:51:16;;;;;;;0.00;0.00;;;23.30;60.90;;;;;;4961450;28;20031;-85
2023/09/25 10:53:43;;;;;;;0.20;0.20;;;23.30;58.20;;;;;;4942078;29;20031;-85
2023/09/25 10:56:11;;;;;;;0.00;0.00;;;23.30;58.90;;;;;;4949924;29;20801;-84
2023/09/25 10:58:37;;;;;;;1.00;1.00;;;23.10;58.40;;;;;;4942934;29;20028;-85
2023/09/25 11:01:04;;;;;;;0.00;0.00;;;22.90;56.20;;;;;;4945628;29;20015;-85
2023/09/25 11:03:31;;;;;;;0.10;0.10;;;22.80;56.80;;;;;;4945201;28;20032;-85
2023/09/25 11:05:58;;;;;;;0.00;0.00;;;22.70;57.40;;;;;;4948812;29;20027;-84
2023/09/25 11:08:26;;;;;;;0.00;0.00;;;22.60;56.90;;;;;;4942230;28;20142;-85
2023/09/25 11:10:52;;;;;;;0.00;0.00;;;22.70;57.80;;;;;;4947225;28;20023;-85
2023/09/25 11:13:18;;;;;;;0.00;0.00;;;22.60;56.80;;;;;;4947519;28;20034;-85
2023/09/25 11:15:46;;;;;;;0.00;0.00;;;22.60;57.90;;;;;;4950299;28;20031;-85
2023/09/25 11:18:11;;;;;;;0.05;0.05;;;22.70;56.50;;;;;;4949521;29;20054;-87
2023/09/25 11:20:38;;;;;;;2.42;2.30;;;22.70;59.30;;;;;;4949705;29;20051;-87
2023/09/25 11:23:14;;;;;;;0.00;0.00;;;22.70;59.90;;;;;;4948088;28;20054;-87
2023/09/25 11:25:50;;;;;;;0.00;0.00;;;22.60;59.10;;;;;;4944263;28;20027;-87
2023/09/25 11:28:25;;;;;;;0.00;0.00;;;22.40;56.30;;;;;;4953292;28;20030;-87
2023/09/25 11:30:51;;;;;;;0.00;0.00;;;22.60;60.20;;;;;;4960325;28;20031;-84
2023/09/25 11:33:21;;;;;;;0.00;0.00;;;22.60;59.50;;;;;;4946094;28;20035;-84
2023/09/25 11:35:51;;;;;;;0.00;0.00;;;22.40;58.50;;;;;;4947708;29;20039;-84
2023/09/25 11:38:21;;;;;;;0.00;0.00;;;22.30;59.10;;;;;;4944978;28;20104;-84
2023/09/25 11:40:50;;;;;;;0.00;0.00;;;22.30;61.80;;;;;;4947902;28;20123;-84
2023/09/25 11:43:16;;;;;;;0.00;0.00;;;22.30;62.60;;;;;;4949511;29;20494;-84
2023/09/25 11:45:43;;;;;;;0.00;0.00;;;22.40;60.00;;;;;;4949031;29;20035;-84
2023/09/25 11:48:18;;;;;;;0.00;0.00;;;22.10;60.40;;;;;;4947421;28;20031;-83
2023/09/25 11:50:44;;;;;;;0.68;0.55;;;22.20;60.80;;;;;;4963781;28;20027;-88
2023/09/25 11:53:10;;;;;;;0.00;0.00;;;22.30;59.10;;;;;;4943485;29;20087;-88
2023/09/25 11:55:36;;;;;;;0.00;0.00;;;22.20;59.90;;;;;;4942625;28;20052;-85
2023/09/25 11:58:07;;;;;;;0.00;0.00;;;22.30;59.60;;;;;;4941286;28;20041;-86
2023/09/25 12:00:33;;;;;;;0.00;0.00;;;22.20;59.20;;;;;;4947417;28;20051;-85
2023/09/25 12:02:59;;;;;;;0.00;0.00;;;22.10;58.70;;;;;;4943389;28;20059;-85
2023/09/25 12:05:27;;;;;;;0.38;0.38;;;22.10;59.60;;;;;;4936896;29;20770;-85
2023/09/25 12:07:53;;;;;;;0.00;0.00;;;22.00;62.10;;;;;;4942574;28;20094;-85
2023/09/25 12:10:19;;;;;;;0.00;0.00;;;22.00;63.90;;;;;;4941956;28;20742;-86
2023/09/25 12:12:47;;;;;;;0.03;0.03;;;22.10;66.30;;;;;;4947392;28;20027;-85
2023/09/25 12:15:14;;;;;;;0.00;0.00;;;22.00;61.60;;;;;;4959094;28;20046;-85
2023/09/25 12:17:40;;;;;;;0.00;0.00;;;22.00;64.70;;;;;;4945991;28;20031;-85
2023/09/25 12:20:11;;;;;;;;;;;22.00;65.80;;;;;;4948940;29;20036;-86
2023/09/25 12:22:40;;;;;;;0.10;0.10;;;22.20;68.40;;;;;;4941744;29;19923;-85
2023/09/25 12:25:11;;;;;;;0.00;0.00;;;22.10;68.60;;;;;;4947576;28;20644;-85
2023/09/25 12:27:40;;;;;;;0.00;0.00;;;22.00;66.00;;;;;;4945277;28;20028;-84
2023/09/25 12:30:16;;;;;;;0.00;0.00;;;21.90;66.00;;;;;;4950477;28;20488;-85
2023/09/25 12:32:47;;;;;;;0.00;0.00;;;22.00;67.30;;;;;;4946541;29;20027;-86
2023/09/25 12:35:15;;;;;;;0.00;0.00;;;22.00;68.20;;;;;;4948522;29;20023;-85
2023/09/25 12:37:45;;;;;;;0.00;0.00;;;22.10;70.70;;;;;;4946956;28;20098;-86
2023/09/25 12:40:13;;;;;;;0.00;0.00;;;22.00;71.10;;;;;;4946410;29;20028;-85
2023/09/25 12:42:40;;;;;;;0.00;0.00;;;22.10;74.00;;;;;;4948082;29;20035;-85
2023/09/25 12:45:06;;;;;;;0.05;0.05;;;22.50;75.80;;;;;;4950552;28;20031;-85
2023/09/25 12:47:33;;;;;;;0.00;0.00;;;22.40;77.30;;;;;;4951993;29;20055;-86